DABT

Batna Airport

Batna, Algeria
TAF DABT 252300Z 2600/2624 10014KT 7000 -RA FEW023TCU SCT033 PROB30 TEMPO 2600/2606 4000 -TSRA FEW020CB TEMPO 2612/2624 17020G30KT 2000 TSRAGR SCT020CB
Issued Valid From Valid To
Apr-25 @ 23:00 UTC
(5 hours ago)
Apr-26 @ 00:00 UTC
(4 hours ago)
Apr-27 @ 00:00 UTC
(in 20 hours)
Apr-26 @ 00:00 to Apr-27 @ 00:00
TAF DABT 252300Z 2600/2624 10014KT 7000 -RA FEW023TCU SCT033
Wind Visibility Clouds Conditions
100° at 14 knots 7,001 meters
  • Few at 2,300' AGL
  • Scattered at 3,300' AGL
  • Light Rain
Temporary  (Probability 30%) Apr-26 @ 00:00 to Apr-26 @ 06:00
PROB30 TEMPO 2600/2606 4000 -TSRA FEW020CB
Visibility Clouds Conditions
4,007 meters
  • Few at 2,000' AGL
  • Light Thunderstorm
  • Light Rain
Temporary Apr-26 @ 12:00 to Apr-27 @ 00:00
TEMPO 2612/2624 17020G30KT 2000 TSRAGR SCT020CB
Wind Visibility Clouds Conditions
170° at 20 knots
 Gusting to 30 knots
1,996 meters
  • Scattered at 2,000' AGL
  • Thunderstorm
  • Rain
  • Thunderstorm
  • Hail
TAF DABT 252300Z 2600/2624 10014KT 7000 -RA FEW023TCU SCT033 PROB30 TEMPO 2600/2606 4000 -TSRA FEW020CB TEMPO 2612/2624 17020G30KT 2000 TSRAGR SCT020CB
Issued Apr-25 @ 23:00 UTC
(5 hours ago)
Valid From Apr-26 @ 00:00 UTC
(4 hours ago)
Valid To Apr-27 @ 00:00 UTC
(in 20 hours)
Apr-26 @ 00:00 - Apr-27 @ 00:00
Wind Visibility
100° at 14 knots 7,001 meters
Clouds
  • Few at 2,300' AGL
  • Scattered at 3,300' AGL
Conditions
  • Light Rain
Probability 30% Temporary Apr-26 @ 00:00 - Apr-26 @ 06:00
Clouds
  • Few at 2,000' AGL
Conditions
  • Light Thunderstorm
  • Light Rain
Temporary Apr-26 @ 12:00 - Apr-27 @ 00:00
Wind Visibility
170° at 20 knots
 Gusting to 30 knots
1,996 meters
Clouds
  • Scattered at 2,000' AGL
Conditions
  • Thunderstorm
  • Rain
  • Thunderstorm
  • Hail